sensor_id;sensor_type;location;lat;lon;timestamp;temperature;humidity
39219;DHT22;24934;52.752;6.964;2023-04-25T00:00:11;6.00;99.90
39219;DHT22;24934;52.752;6.964;2023-04-25T00:02:37;5.90;99.90
39219;DHT22;24934;52.752;6.964;2023-04-25T00:05:08;5.80;99.90
39219;DHT22;24934;52.752;6.964;2023-04-25T00:07:34;5.70;99.90
39219;DHT22;24934;52.752;6.964;2023-04-25T00:10:00;5.60;99.90
39219;DHT22;24934;52.752;6.964;2023-04-25T00:12:26;5.60;99.90
39219;DHT22;24934;52.752;6.964;2023-04-25T00:14:54;5.40;99.90
39219;DHT22;24934;52.752;6.964;2023-04-25T00:17:23;5.40;99.90
39219;DHT22;24934;52.752;6.964;2023-04-25T00:19:50;5.30;99.90
39219;DHT22;24934;52.752;6.964;2023-04-25T00:22:16;5.30;99.90
39219;DHT22;24934;52.752;6.964;2023-04-25T00:24:42;5.40;99.90
39219;DHT22;24934;52.752;6.964;2023-04-25T00:27:08;5.40;99.90
39219;DHT22;24934;52.752;6.964;2023-04-25T00:29:34;5.40;99.90
39219;DHT22;24934;52.752;6.964;2023-04-25T00:32:00;5.40;99.90
39219;DHT22;24934;52.752;6.964;2023-04-25T00:34:28;5.40;99.90
39219;DHT22;24934;52.752;6.964;2023-04-25T00:36:54;5.40;99.90
39219;DHT22;24934;52.752;6.964;2023-04-25T00:39:20;5.40;99.90
39219;DHT22;24934;52.752;6.964;2023-04-25T00:41:46;5.40;99.90
39219;DHT22;24934;52.752;6.964;2023-04-25T00:44:24;5.40;99.90
39219;DHT22;24934;52.752;6.964;2023-04-25T00:46:52;5.30;99.90
39219;DHT22;24934;52.752;6.964;2023-04-25T00:49:18;5.30;99.90
39219;DHT22;24934;52.752;6.964;2023-04-25T00:51:44;5.20;99.90
39219;DHT22;24934;52.752;6.964;2023-04-25T00:54:11;5.10;99.90
39219;DHT22;24934;52.752;6.964;2023-04-25T00:56:37;4.90;99.90
39219;DHT22;24934;52.752;6.964;2023-04-25T00:59:03;4.90;99.90
39219;DHT22;24934;52.752;6.964;2023-04-25T01:01:32;4.80;99.90
39219;DHT22;24934;52.752;6.964;2023-04-25T01:03:59;4.70;99.90
39219;DHT22;24934;52.752;6.964;2023-04-25T01:06:28;4.70;99.90
39219;DHT22;24934;52.752;6.964;2023-04-25T01:08:53;4.60;99.90
39219;DHT22;24934;52.752;6.964;2023-04-25T01:11:19;4.50;99.90
39219;DHT22;24934;52.752;6.964;2023-04-25T01:13:45;4.60;99.90
39219;DHT22;24934;52.752;6.964;2023-04-25T01:16:13;4.50;99.90
39219;DHT22;24934;52.752;6.964;2023-04-25T01:18:40;4.50;99.90
39219;DHT22;24934;52.752;6.964;2023-04-25T01:21:08;4.50;99.90
39219;DHT22;24934;52.752;6.964;2023-04-25T01:23:35;4.40;99.90
39219;DHT22;24934;52.752;6.964;2023-04-25T01:26:01;4.50;99.90
39219;DHT22;24934;52.752;6.964;2023-04-25T01:28:28;4.50;99.90
39219;DHT22;24934;52.752;6.964;2023-04-25T01:30:54;4.50;99.90
39219;DHT22;24934;52.752;6.964;2023-04-25T01:33:21;4.40;99.90
39219;DHT22;24934;52.752;6.964;2023-04-25T01:35:47;4.40;99.90
39219;DHT22;24934;52.752;6.964;2023-04-25T01:38:14;4.30;99.90
39219;DHT22;24934;52.752;6.964;2023-04-25T01:40:40;4.30;99.90
39219;DHT22;24934;52.752;6.964;2023-04-25T01:43:07;4.20;99.90
39219;DHT22;24934;52.752;6.964;2023-04-25T01:45:37;4.20;99.90
39219;DHT22;24934;52.752;6.964;2023-04-25T01:48:05;4.10;99.90
39219;DHT22;24934;52.752;6.964;2023-04-25T01:50:31;4.00;99.90
39219;DHT22;24934;52.752;6.964;2023-04-25T01:52:57;3.90;99.90
39219;DHT22;24934;52.752;6.964;2023-04-25T01:55:22;3.90;99.90
39219;DHT22;24934;52.752;6.964;2023-04-25T01:57:48;3.90;99.90
39219;DHT22;24934;52.752;6.964;2023-04-25T02:00:13;3.90;99.90
39219;DHT22;24934;52.752;6.964;2023-04-25T02:02:40;4.00;99.90
39219;DHT22;24934;52.752;6.964;2023-04-25T02:05:06;4.00;99.90
39219;DHT22;24934;52.752;6.964;2023-04-25T02:07:32;4.00;99.90
39219;DHT22;24934;52.752;6.964;2023-04-25T02:09:57;4.10;99.90
39219;DHT22;24934;52.752;6.964;2023-04-25T02:12:23;4.00;99.90
39219;DHT22;24934;52.752;6.964;2023-04-25T02:14:51;4.00;99.90
39219;DHT22;24934;52.752;6.964;2023-04-25T02:17:17;3.90;99.90
39219;DHT22;24934;52.752;6.964;2023-04-25T02:19:43;3.80;99.90
39219;DHT22;24934;52.752;6.964;2023-04-25T02:22:12;3.90;99.90
39219;DHT22;24934;52.752;6.964;2023-04-25T02:24:38;3.80;99.90
39219;DHT22;24934;52.752;6.964;2023-04-25T02:27:06;3.90;99.90
39219;DHT22;24934;52.752;6.964;2023-04-25T02:29:33;4.00;99.90
39219;DHT22;24934;52.752;6.964;2023-04-25T02:31:58;4.10;99.90
39219;DHT22;24934;52.752;6.964;2023-04-25T02:34:24;4.20;99.90
39219;DHT22;24934;52.752;6.964;2023-04-25T02:36:50;4.30;99.90
39219;DHT22;24934;52.752;6.964;2023-04-25T02:39:16;4.30;99.90
39219;DHT22;24934;52.752;6.964;2023-04-25T02:41:42;4.40;99.90
39219;DHT22;24934;52.752;6.964;2023-04-25T02:44:07;4.40;99.90
39219;DHT22;24934;52.752;6.964;2023-04-25T02:46:36;4.40;99.90
39219;DHT22;24934;52.752;6.964;2023-04-25T02:49:01;4.40;99.90
39219;DHT22;24934;52.752;6.964;2023-04-25T02:51:27;4.40;99.90
39219;DHT22;24934;52.752;6.964;2023-04-25T02:53:53;4.50;99.90
39219;DHT22;24934;52.752;6.964;2023-04-25T02:56:18;4.50;99.90
39219;DHT22;24934;52.752;6.964;2023-04-25T02:58:44;4.50;99.90
39219;DHT22;24934;52.752;6.964;2023-04-25T03:01:10;4.50;99.90
39219;DHT22;24934;52.752;6.964;2023-04-25T03:03:36;4.50;99.90
39219;DHT22;24934;52.752;6.964;2023-04-25T03:06:01;4.50;99.90
39219;DHT22;24934;52.752;6.964;2023-04-25T03:08:30;4.50;99.90
39219;DHT22;24934;52.752;6.964;2023-04-25T03:10:58;4.50;99.90
39219;DHT22;24934;52.752;6.964;2023-04-25T03:13:24;4.50;99.90
39219;DHT22;24934;52.752;6.964;2023-04-25T03:15:49;4.50;99.90
39219;DHT22;24934;52.752;6.964;2023-04-25T03:18:15;4.60;99.90
39219;DHT22;24934;52.752;6.964;2023-04-25T03:20:41;4.60;99.90
39219;DHT22;24934;52.752;6.964;2023-04-25T03:23:07;4.50;99.90
39219;DHT22;24934;52.752;6.964;2023-04-25T03:25:33;4.50;99.90
39219;DHT22;24934;52.752;6.964;2023-04-25T03:27:58;4.50;99.90
39219;DHT22;24934;52.752;6.964;2023-04-25T03:30:24;4.50;99.90
39219;DHT22;24934;52.752;6.964;2023-04-25T03:32:50;4.50;99.90
39219;DHT22;24934;52.752;6.964;2023-04-25T03:35:15;4.50;99.90
39219;DHT22;24934;52.752;6.964;2023-04-25T03:37:41;4.50;99.90
39219;DHT22;24934;52.752;6.964;2023-04-25T03:40:10;4.50;99.90
39219;DHT22;24934;52.752;6.964;2023-04-25T03:42:36;4.50;99.90
39219;DHT22;24934;52.752;6.964;2023-04-25T03:45:02;4.50;99.90
39219;DHT22;24934;52.752;6.964;2023-04-25T03:47:27;4.50;99.90
39219;DHT22;24934;52.752;6.964;2023-04-25T03:49:53;4.50;99.90
39219;DHT22;24934;52.752;6.964;2023-04-25T03:52:19;4.50;99.90
39219;DHT22;24934;52.752;6.964;2023-04-25T03:54:44;4.50;99.90
39219;DHT22;24934;52.752;6.964;2023-04-25T03:57:13;4.50;99.90
39219;DHT22;24934;52.752;6.964;2023-04-25T03:59:39;4.50;99.90
39219;DHT22;24934;52.752;6.964;2023-04-25T04:02:05;4.50;99.90
39219;DHT22;24934;52.752;6.964;2023-04-25T04:04:31;4.50;99.90
39219;DHT22;24934;52.752;6.964;2023-04-25T04:06:57;4.50;99.90
39219;DHT22;24934;52.752;6.964;2023-04-25T04:09:25;4.50;99.90
39219;DHT22;24934;52.752;6.964;2023-04-25T04:11:51;4.50;99.90
39219;DHT22;24934;52.752;6.964;2023-04-25T04:14:19;4.50;99.90
39219;DHT22;24934;52.752;6.964;2023-04-25T04:16:45;4.50;99.90
39219;DHT22;24934;52.752;6.964;2023-04-25T04:19:16;4.50;99.90
39219;DHT22;24934;52.752;6.964;2023-04-25T04:21:42;4.50;99.90
39219;DHT22;24934;52.752;6.964;2023-04-25T04:24:07;4.50;99.90
39219;DHT22;24934;52.752;6.964;2023-04-25T04:26:33;4.40;99.90
39219;DHT22;24934;52.752;6.964;2023-04-25T04:28:59;4.50;99.90
39219;DHT22;24934;52.752;6.964;2023-04-25T04:31:25;4.40;99.90
39219;DHT22;24934;52.752;6.964;2023-04-25T04:33:51;4.40;99.90
39219;DHT22;24934;52.752;6.964;2023-04-25T04:36:17;4.40;99.90
39219;DHT22;24934;52.752;6.964;2023-04-25T04:38:45;4.40;99.90
39219;DHT22;24934;52.752;6.964;2023-04-25T04:41:10;4.40;99.90
39219;DHT22;24934;52.752;6.964;2023-04-25T04:43:36;4.40;99.90
39219;DHT22;24934;52.752;6.964;2023-04-25T04:46:02;4.40;99.90
39219;DHT22;24934;52.752;6.964;2023-04-25T04:48:31;4.40;99.90
39219;DHT22;24934;52.752;6.964;2023-04-25T04:51:01;4.40;99.90
39219;DHT22;24934;52.752;6.964;2023-04-25T04:53:30;4.30;99.90
39219;DHT22;24934;52.752;6.964;2023-04-25T04:55:55;4.40;99.90
39219;DHT22;24934;52.752;6.964;2023-04-25T04:58:21;4.30;99.90
39219;DHT22;24934;52.752;6.964;2023-04-25T05:00:47;4.40;99.90
39219;DHT22;24934;52.752;6.964;2023-04-25T05:03:13;4.40;99.90
39219;DHT22;24934;52.752;6.964;2023-04-25T05:05:38;4.40;99.90
39219;DHT22;24934;52.752;6.964;2023-04-25T05:08:08;4.40;99.90
39219;DHT22;24934;52.752;6.964;2023-04-25T05:10:34;4.50;99.90
39219;DHT22;24934;52.752;6.964;2023-04-25T05:12:59;4.50;99.90
39219;DHT22;24934;52.752;6.964;2023-04-25T05:15:28;4.90;99.90
39219;DHT22;24934;52.752;6.964;2023-04-25T05:17:53;5.50;99.90
39219;DHT22;24934;52.752;6.964;2023-04-25T05:20:19;6.20;99.90
39219;DHT22;24934;52.752;6.964;2023-04-25T05:22:45;6.90;99.90
39219;DHT22;24934;52.752;6.964;2023-04-25T05:25:10;7.10;99.90
39219;DHT22;24934;52.752;6.964;2023-04-25T05:27:36;7.40;99.90
39219;DHT22;24934;52.752;6.964;2023-04-25T05:30:02;7.60;99.90
39219;DHT22;24934;52.752;6.964;2023-04-25T05:32:27;7.40;99.90
39219;DHT22;24934;52.752;6.964;2023-04-25T05:34:53;7.20;99.90
39219;DHT22;24934;52.752;6.964;2023-04-25T05:37:19;7.00;99.90
39219;DHT22;24934;52.752;6.964;2023-04-25T05:39:44;6.70;99.90
39219;DHT22;24934;52.752;6.964;2023-04-25T05:42:10;6.40;99.90
39219;DHT22;24934;52.752;6.964;2023-04-25T05:44:35;6.30;99.90
39219;DHT22;24934;52.752;6.964;2023-04-25T05:47:01;6.10;99.90
39219;DHT22;24934;52.752;6.964;2023-04-25T05:49:27;6.00;99.90
39219;DHT22;24934;52.752;6.964;2023-04-25T05:51:52;6.00;99.90
39219;DHT22;24934;52.752;6.964;2023-04-25T05:54:18;5.90;99.90
39219;DHT22;24934;52.752;6.964;2023-04-25T05:56:44;6.10;99.90
39219;DHT22;24934;52.752;6.964;2023-04-25T05:59:09;6.10;99.90
39219;DHT22;24934;52.752;6.964;2023-04-25T06:01:35;6.10;99.90
39219;DHT22;24934;52.752;6.964;2023-04-25T06:04:01;6.10;99.90
39219;DHT22;24934;52.752;6.964;2023-04-25T06:06:26;5.90;99.90
39219;DHT22;24934;52.752;6.964;2023-04-25T06:08:53;5.90;99.90
39219;DHT22;24934;52.752;6.964;2023-04-25T06:11:18;5.80;99.90
39219;DHT22;24934;52.752;6.964;2023-04-25T06:13:45;5.80;99.90
39219;DHT22;24934;52.752;6.964;2023-04-25T06:16:11;5.80;99.90
39219;DHT22;24934;52.752;6.964;2023-04-25T06:18:36;5.90;99.90
39219;DHT22;24934;52.752;6.964;2023-04-25T06:21:02;6.10;99.90
39219;DHT22;24934;52.752;6.964;2023-04-25T06:23:28;6.40;99.90
39219;DHT22;24934;52.752;6.964;2023-04-25T06:25:53;6.80;99.90
39219;DHT22;24934;52.752;6.964;2023-04-25T06:28:19;7.00;99.90
39219;DHT22;24934;52.752;6.964;2023-04-25T06:30:44;7.30;99.90
39219;DHT22;24934;52.752;6.964;2023-04-25T06:33:10;7.60;99.90
39219;DHT22;24934;52.752;6.964;2023-04-25T06:35:36;7.80;99.90
39219;DHT22;24934;52.752;6.964;2023-04-25T06:38:01;7.90;99.90
39219;DHT22;24934;52.752;6.964;2023-04-25T06:40:27;8.20;99.90
39219;DHT22;24934;52.752;6.964;2023-04-25T06:42:53;8.50;99.90
39219;DHT22;24934;52.752;6.964;2023-04-25T06:45:18;8.60;99.90
39219;DHT22;24934;52.752;6.964;2023-04-25T06:47:44;8.90;99.90
39219;DHT22;24934;52.752;6.964;2023-04-25T06:50:09;9.30;99.90
39219;DHT22;24934;52.752;6.964;2023-04-25T06:52:36;9.50;99.90
39219;DHT22;24934;52.752;6.964;2023-04-25T06:55:04;9.60;99.90
39219;DHT22;24934;52.752;6.964;2023-04-25T06:57:30;9.70;99.90
39219;DHT22;24934;52.752;6.964;2023-04-25T06:59:58;9.70;99.90
39219;DHT22;24934;52.752;6.964;2023-04-25T07:02:24;9.60;99.90
39219;DHT22;24934;52.752;6.964;2023-04-25T07:04:49;9.40;99.90
39219;DHT22;24934;52.752;6.964;2023-04-25T07:07:15;9.50;99.90
39219;DHT22;24934;52.752;6.964;2023-04-25T07:09:42;9.50;99.90
39219;DHT22;24934;52.752;6.964;2023-04-25T07:12:07;9.50;99.90
39219;DHT22;24934;52.752;6.964;2023-04-25T07:14:33;9.30;99.90
39219;DHT22;24934;52.752;6.964;2023-04-25T07:16:59;9.10;99.90
39219;DHT22;24934;52.752;6.964;2023-04-25T07:19:24;8.90;99.90
39219;DHT22;24934;52.752;6.964;2023-04-25T07:21:52;8.70;99.90
39219;DHT22;24934;52.752;6.964;2023-04-25T07:24:18;8.20;99.90
39219;DHT22;24934;52.752;6.964;2023-04-25T07:26:43;8.30;99.90
39219;DHT22;24934;52.752;6.964;2023-04-25T07:29:10;8.00;99.90
39219;DHT22;24934;52.752;6.964;2023-04-25T07:31:35;8.10;99.90
39219;DHT22;24934;52.752;6.964;2023-04-25T07:34:01;8.10;99.90
39219;DHT22;24934;52.752;6.964;2023-04-25T07:36:27;8.30;99.90
39219;DHT22;24934;52.752;6.964;2023-04-25T07:38:52;9.40;99.90
39219;DHT22;24934;52.752;6.964;2023-04-25T07:41:18;10.30;99.90
39219;DHT22;24934;52.752;6.964;2023-04-25T07:43:43;11.00;99.90
39219;DHT22;24934;52.752;6.964;2023-04-25T07:46:09;11.10;99.90
39219;DHT22;24934;52.752;6.964;2023-04-25T07:48:35;11.10;99.90
39219;DHT22;24934;52.752;6.964;2023-04-25T07:51:00;10.80;99.90
39219;DHT22;24934;52.752;6.964;2023-04-25T07:53:26;11.30;99.90
39219;DHT22;24934;52.752;6.964;2023-04-25T07:55:51;12.50;99.90
39219;DHT22;24934;52.752;6.964;2023-04-25T07:58:17;13.50;99.90
39219;DHT22;24934;52.752;6.964;2023-04-25T08:00:47;13.50;99.90
39219;DHT22;24934;52.752;6.964;2023-04-25T08:03:12;14.10;99.90
39219;DHT22;24934;52.752;6.964;2023-04-25T08:05:38;14.50;99.90
39219;DHT22;24934;52.752;6.964;2023-04-25T08:08:06;14.40;99.90
39219;DHT22;24934;52.752;6.964;2023-04-25T08:10:32;14.80;99.90
39219;DHT22;24934;52.752;6.964;2023-04-25T08:12:59;15.70;99.90
39219;DHT22;24934;52.752;6.964;2023-04-25T08:15:25;15.60;99.90
39219;DHT22;24934;52.752;6.964;2023-04-25T08:17:51;16.10;99.90
39219;DHT22;24934;52.752;6.964;2023-04-25T08:20:17;15.90;99.90
39219;DHT22;24934;52.752;6.964;2023-04-25T08:22:43;15.80;99.90
39219;DHT22;24934;52.752;6.964;2023-04-25T08:25:08;15.50;99.90
39219;DHT22;24934;52.752;6.964;2023-04-25T08:27:37;15.20;99.90
39219;DHT22;24934;52.752;6.964;2023-04-25T08:30:03;16.10;99.90
39219;DHT22;24934;52.752;6.964;2023-04-25T08:32:29;15.60;99.90
39219;DHT22;24934;52.752;6.964;2023-04-25T08:34:55;15.10;99.90
39219;DHT22;24934;52.752;6.964;2023-04-25T08:37:21;15.60;99.90
39219;DHT22;24934;52.752;6.964;2023-04-25T08:39:47;16.30;99.90
39219;DHT22;24934;52.752;6.964;2023-04-25T08:42:20;17.30;99.90
39219;DHT22;24934;52.752;6.964;2023-04-25T08:44:48;18.30;99.90
39219;DHT22;24934;52.752;6.964;2023-04-25T08:47:13;18.00;99.90
39219;DHT22;24934;52.752;6.964;2023-04-25T08:49:43;17.10;99.90
39219;DHT22;24934;52.752;6.964;2023-04-25T08:52:11;16.10;99.90
39219;DHT22;24934;52.752;6.964;2023-04-25T08:54:44;15.60;99.90
39219;DHT22;24934;52.752;6.964;2023-04-25T08:57:12;14.30;99.90
39219;DHT22;24934;52.752;6.964;2023-04-25T08:59:39;13.00;99.90
39219;DHT22;24934;52.752;6.964;2023-04-25T09:02:08;11.60;99.90
39219;DHT22;24934;52.752;6.964;2023-04-25T09:04:35;11.10;99.90
39219;DHT22;24934;52.752;6.964;2023-04-25T09:07:01;10.40;99.90
39219;DHT22;24934;52.752;6.964;2023-04-25T09:09:27;10.00;99.90
39219;DHT22;24934;52.752;6.964;2023-04-25T09:11:54;9.60;99.90
39219;DHT22;24934;52.752;6.964;2023-04-25T09:14:21;9.20;99.90
39219;DHT22;24934;52.752;6.964;2023-04-25T09:19:26;10.80;99.90
39219;DHT22;24934;52.752;6.964;2023-04-25T09:21:57;12.10;99.90
39219;DHT22;24934;52.752;6.964;2023-04-25T09:24:39;13.60;99.90
39219;DHT22;24934;52.752;6.964;2023-04-25T09:27:08;15.30;99.90
39219;DHT22;24934;52.752;6.964;2023-04-25T09:29:36;15.70;99.90
39219;DHT22;24934;52.752;6.964;2023-04-25T09:32:19;16.80;99.90
39219;DHT22;24934;52.752;6.964;2023-04-25T09:34:56;17.50;99.90
39219;DHT22;24934;52.752;6.964;2023-04-25T09:37:29;18.00;99.90
39219;DHT22;24934;52.752;6.964;2023-04-25T09:39:57;17.70;99.90
39219;DHT22;24934;52.752;6.964;2023-04-25T09:42:25;16.40;99.90
39219;DHT22;24934;52.752;6.964;2023-04-25T09:44:53;15.10;99.90
39219;DHT22;24934;52.752;6.964;2023-04-25T09:47:20;14.00;99.90
39219;DHT22;24934;52.752;6.964;2023-04-25T09:49:47;13.30;99.90
39219;DHT22;24934;52.752;6.964;2023-04-25T09:52:21;12.50;99.90
39219;DHT22;24934;52.752;6.964;2023-04-25T09:54:47;11.50;99.90
39219;DHT22;24934;52.752;6.964;2023-04-25T09:57:15;11.10;99.90
39219;DHT22;24934;52.752;6.964;2023-04-25T09:59:49;11.20;99.90
39219;DHT22;24934;52.752;6.964;2023-04-25T10:02:17;11.40;99.90
39219;DHT22;24934;52.752;6.964;2023-04-25T10:04:47;11.00;99.90
39219;DHT22;24934;52.752;6.964;2023-04-25T10:07:15;11.00;99.90
39219;DHT22;24934;52.752;6.964;2023-04-25T10:09:42;11.20;99.90
39219;DHT22;24934;52.752;6.964;2023-04-25T10:12:08;11.10;99.90
39219;DHT22;24934;52.752;6.964;2023-04-25T10:14:34;10.70;99.90
39219;DHT22;24934;52.752;6.964;2023-04-25T10:17:01;10.50;99.90
39219;DHT22;24934;52.752;6.964;2023-04-25T10:19:27;10.70;99.90
39219;DHT22;24934;52.752;6.964;2023-04-25T10:22:14;11.10;99.90
39219;DHT22;24934;52.752;6.964;2023-04-25T10:24:43;11.60;99.90
39219;DHT22;24934;52.752;6.964;2023-04-25T10:27:09;12.20;99.90
39219;DHT22;24934;52.752;6.964;2023-04-25T10:29:36;13.00;99.90
39219;DHT22;24934;52.752;6.964;2023-04-25T10:32:02;13.70;99.90
39219;DHT22;24934;52.752;6.964;2023-04-25T10:34:44;14.40;99.90
39219;DHT22;24934;52.752;6.964;2023-04-25T10:37:12;15.50;99.90
39219;DHT22;24934;52.752;6.964;2023-04-25T10:39:40;16.00;99.90
39219;DHT22;24934;52.752;6.964;2023-04-25T10:42:06;16.70;99.90
39219;DHT22;24934;52.752;6.964;2023-04-25T10:44:33;17.40;99.90
39219;DHT22;24934;52.752;6.964;2023-04-25T10:47:01;17.10;99.90
39219;DHT22;24934;52.752;6.964;2023-04-25T10:49:44;16.30;99.90
39219;DHT22;24934;52.752;6.964;2023-04-25T10:52:19;14.20;99.90
39219;DHT22;24934;52.752;6.964;2023-04-25T10:54:57;12.80;99.90
39219;DHT22;24934;52.752;6.964;2023-04-25T10:57:36;10.60;99.90
39219;DHT22;24934;52.752;6.964;2023-04-25T11:02:41;8.40;99.90
39219;DHT22;24934;52.752;6.964;2023-04-25T11:05:08;7.70;99.90
39219;DHT22;24934;52.752;6.964;2023-04-25T11:07:44;8.60;99.90
39219;DHT22;24934;52.752;6.964;2023-04-25T11:10:11;9.70;99.90
39219;DHT22;24934;52.752;6.964;2023-04-25T11:12:36;11.00;99.90
39219;DHT22;24934;52.752;6.964;2023-04-25T11:15:06;11.90;99.90
39219;DHT22;24934;52.752;6.964;2023-04-25T11:17:33;12.50;99.90
39219;DHT22;24934;52.752;6.964;2023-04-25T11:19:59;13.00;99.90
39219;DHT22;24934;52.752;6.964;2023-04-25T11:22:27;13.60;99.90
39219;DHT22;24934;52.752;6.964;2023-04-25T11:24:52;14.10;99.90
39219;DHT22;24934;52.752;6.964;2023-04-25T11:27:18;14.40;99.90
39219;DHT22;24934;52.752;6.964;2023-04-25T11:29:44;14.90;99.90
39219;DHT22;24934;52.752;6.964;2023-04-25T11:32:10;15.70;99.90
39219;DHT22;24934;52.752;6.964;2023-04-25T11:34:35;15.90;99.90
39219;DHT22;24934;52.752;6.964;2023-04-25T11:37:02;15.40;99.90
39219;DHT22;24934;52.752;6.964;2023-04-25T11:39:28;14.50;99.90
39219;DHT22;24934;52.752;6.964;2023-04-25T11:41:54;13.40;99.90
39219;DHT22;24934;52.752;6.964;2023-04-25T11:44:22;12.00;99.90
39219;DHT22;24934;52.752;6.964;2023-04-25T11:46:48;10.50;99.90
39219;DHT22;24934;52.752;6.964;2023-04-25T11:49:15;9.80;99.90
39219;DHT22;24934;52.752;6.964;2023-04-25T11:51:45;9.90;99.90
39219;DHT22;24934;52.752;6.964;2023-04-25T11:54:14;10.10;99.90
39219;DHT22;24934;52.752;6.964;2023-04-25T11:56:42;10.20;99.90
39219;DHT22;24934;52.752;6.964;2023-04-25T11:59:07;9.60;99.90
39219;DHT22;24934;52.752;6.964;2023-04-25T12:01:35;9.20;99.90
39219;DHT22;24934;52.752;6.964;2023-04-25T12:06:44;8.20;99.90
39219;DHT22;24934;52.752;6.964;2023-04-25T12:09:20;8.00;99.90
39219;DHT22;24934;52.752;6.964;2023-04-25T12:12:00;7.90;99.90
39219;DHT22;24934;52.752;6.964;2023-04-25T12:14:30;8.60;99.90
39219;DHT22;24934;52.752;6.964;2023-04-25T12:16:59;9.40;99.90
39219;DHT22;24934;52.752;6.964;2023-04-25T12:19:25;10.30;99.90
39219;DHT22;24934;52.752;6.964;2023-04-25T12:21:52;11.10;99.90
39219;DHT22;24934;52.752;6.964;2023-04-25T12:24:21;11.70;99.90
39219;DHT22;24934;52.752;6.964;2023-04-25T12:26:59;12.20;99.90
39219;DHT22;24934;52.752;6.964;2023-04-25T12:29:27;12.60;99.90
39219;DHT22;24934;52.752;6.964;2023-04-25T12:31:54;12.80;99.90
39219;DHT22;24934;52.752;6.964;2023-04-25T12:34:20;12.50;99.90
39219;DHT22;24934;52.752;6.964;2023-04-25T12:36:47;12.40;99.90
39219;DHT22;24934;52.752;6.964;2023-04-25T12:39:20;12.80;99.90
39219;DHT22;24934;52.752;6.964;2023-04-25T12:41:49;13.10;99.90
39219;DHT22;24934;52.752;6.964;2023-04-25T12:44:15;13.40;99.90
39219;DHT22;24934;52.752;6.964;2023-04-25T12:46:45;13.80;99.90
39219;DHT22;24934;52.752;6.964;2023-04-25T12:49:12;14.10;99.90
39219;DHT22;24934;52.752;6.964;2023-04-25T12:51:37;14.20;99.90
39219;DHT22;24934;52.752;6.964;2023-04-25T12:54:04;14.20;99.90
39219;DHT22;24934;52.752;6.964;2023-04-25T12:56:31;13.60;99.90
39219;DHT22;24934;52.752;6.964;2023-04-25T12:58:57;14.00;99.90
39219;DHT22;24934;52.752;6.964;2023-04-25T13:01:24;14.50;99.90
39219;DHT22;24934;52.752;6.964;2023-04-25T13:03:50;14.70;99.90
39219;DHT22;24934;52.752;6.964;2023-04-25T13:06:16;14.70;99.90
39219;DHT22;24934;52.752;6.964;2023-04-25T13:08:42;14.70;99.90
39219;DHT22;24934;52.752;6.964;2023-04-25T13:11:08;14.20;99.90
39219;DHT22;24934;52.752;6.964;2023-04-25T13:13:35;13.80;99.90
39219;DHT22;24934;52.752;6.964;2023-04-25T13:16:04;13.80;99.90
39219;DHT22;24934;52.752;6.964;2023-04-25T13:18:30;13.70;99.90
39219;DHT22;24934;52.752;6.964;2023-04-25T13:20:57;13.80;99.90
39219;DHT22;24934;52.752;6.964;2023-04-25T13:23:24;14.00;99.90
39219;DHT22;24934;52.752;6.964;2023-04-25T13:25:50;14.10;99.90
39219;DHT22;24934;52.752;6.964;2023-04-25T13:28:16;14.00;99.90
39219;DHT22;24934;52.752;6.964;2023-04-25T13:30:42;13.40;99.90
39219;DHT22;24934;52.752;6.964;2023-04-25T13:33:08;13.00;99.90
39219;DHT22;24934;52.752;6.964;2023-04-25T13:35:35;12.80;99.90
39219;DHT22;24934;52.752;6.964;2023-04-25T13:38:00;12.60;99.90
39219;DHT22;24934;52.752;6.964;2023-04-25T13:40:29;12.40;99.90
39219;DHT22;24934;52.752;6.964;2023-04-25T13:42:55;12.30;99.90
39219;DHT22;24934;52.752;6.964;2023-04-25T13:45:21;12.50;99.90
39219;DHT22;24934;52.752;6.964;2023-04-25T13:47:47;12.70;99.90
39219;DHT22;24934;52.752;6.964;2023-04-25T13:50:13;12.90;99.90
39219;DHT22;24934;52.752;6.964;2023-04-25T13:52:39;13.30;99.90
39219;DHT22;24934;52.752;6.964;2023-04-25T13:55:06;13.70;99.90
39219;DHT22;24934;52.752;6.964;2023-04-25T13:57:33;13.90;99.90
39219;DHT22;24934;52.752;6.964;2023-04-25T13:59:58;14.00;99.90
39219;DHT22;24934;52.752;6.964;2023-04-25T14:02:24;13.80;99.90
39219;DHT22;24934;52.752;6.964;2023-04-25T14:04:50;13.70;99.90
39219;DHT22;24934;52.752;6.964;2023-04-25T14:07:16;13.70;99.90
39219;DHT22;24934;52.752;6.964;2023-04-25T14:09:42;13.50;99.90
39219;DHT22;24934;52.752;6.964;2023-04-25T14:12:07;12.90;99.90
39219;DHT22;24934;52.752;6.964;2023-04-25T14:14:33;12.90;99.90
39219;DHT22;24934;52.752;6.964;2023-04-25T14:16:59;13.00;99.90
39219;DHT22;24934;52.752;6.964;2023-04-25T14:19:24;13.60;99.90
39219;DHT22;24934;52.752;6.964;2023-04-25T14:21:50;13.70;99.90
39219;DHT22;24934;52.752;6.964;2023-04-25T14:24:16;13.10;99.90
39219;DHT22;24934;52.752;6.964;2023-04-25T14:26:42;11.00;99.90
39219;DHT22;24934;52.752;6.964;2023-04-25T14:29:08;9.80;99.90
39219;DHT22;24934;52.752;6.964;2023-04-25T14:31:37;9.20;99.90
39219;DHT22;24934;52.752;6.964;2023-04-25T14:34:04;8.60;99.90
39219;DHT22;24934;52.752;6.964;2023-04-25T14:36:30;8.40;99.90
39219;DHT22;24934;52.752;6.964;2023-04-25T14:38:56;8.40;99.90
39219;DHT22;24934;52.752;6.964;2023-04-25T14:41:22;8.80;99.90
39219;DHT22;24934;52.752;6.964;2023-04-25T14:43:48;9.40;99.90
39219;DHT22;24934;52.752;6.964;2023-04-25T14:46:14;10.40;99.90
39219;DHT22;24934;52.752;6.964;2023-04-25T14:48:40;10.90;99.90
39219;DHT22;24934;52.752;6.964;2023-04-25T14:51:05;11.20;99.90
39219;DHT22;24934;52.752;6.964;2023-04-25T14:53:31;10.90;99.90
39219;DHT22;24934;52.752;6.964;2023-04-25T14:55:57;10.50;99.90
39219;DHT22;24934;52.752;6.964;2023-04-25T14:58:23;10.30;99.90
39219;DHT22;24934;52.752;6.964;2023-04-25T15:00:48;10.10;99.90
39219;DHT22;24934;52.752;6.964;2023-04-25T15:03:14;10.00;99.90
39219;DHT22;24934;52.752;6.964;2023-04-25T15:05:42;9.60;99.90
39219;DHT22;24934;52.752;6.964;2023-04-25T15:08:08;9.40;99.90
39219;DHT22;24934;52.752;6.964;2023-04-25T15:10:34;9.30;99.90
39219;DHT22;24934;52.752;6.964;2023-04-25T15:13:00;9.40;99.90
39219;DHT22;24934;52.752;6.964;2023-04-25T15:15:26;9.40;99.90
39219;DHT22;24934;52.752;6.964;2023-04-25T15:17:52;9.70;99.90
39219;DHT22;24934;52.752;6.964;2023-04-25T15:20:20;10.10;99.90
39219;DHT22;24934;52.752;6.964;2023-04-25T15:22:46;10.20;99.90
39219;DHT22;24934;52.752;6.964;2023-04-25T15:25:15;10.20;99.90
39219;DHT22;24934;52.752;6.964;2023-04-25T15:27:44;10.20;99.90
39219;DHT22;24934;52.752;6.964;2023-04-25T15:30:12;10.30;99.90
39219;DHT22;24934;52.752;6.964;2023-04-25T15:32:42;10.50;99.90
39219;DHT22;24934;52.752;6.964;2023-04-25T15:35:08;10.30;99.90
39219;DHT22;24934;52.752;6.964;2023-04-25T15:37:37;9.90;99.90
39219;DHT22;24934;52.752;6.964;2023-04-25T15:42:37;9.40;99.90
39219;DHT22;24934;52.752;6.964;2023-04-25T15:45:07;9.30;99.90
39219;DHT22;24934;52.752;6.964;2023-04-25T15:47:34;9.10;99.90